Time;durP1;ratioP1;P1;durP2;ratioP2;P2;SDS_P1;SDS_P2;PMS_P1;PMS_P2;Temp;Humidity;BMP_temperature;BMP_pressure;BME280_temperature;BME280_humidity;BME280_pressure;Samples;Min_cycle;Max_cycle;Signal;HPM_P1;HPM_P2
2022/08/19 10:11:17;;;;;;;16.80;9.73;;;16.90;75.60;19.30;93814.00;;;;10547180;27;45284;-60
2022/08/19 10:16:39;;;;;;;9.27;6.32;;;16.80;75.70;19.50;93811.00;;;;10481742;28;45261;-60
2022/08/19 10:21:59;;;;;;;12.40;7.50;;;17.20;74.10;19.70;93801.00;;;;10469659;28;45329;-62
2022/08/19 10:27:21;;;;;;;9.95;6.30;;;17.50;72.30;19.90;93813.00;;;;10461914;28;45719;-62
2022/08/19 10:32:42;;;;;;;8.48;5.25;;;17.70;70.90;20.20;93804.00;;;;10471357;28;45592;-62
2022/08/19 10:43:25;;;;;;;8.63;3.78;;;18.60;69.20;20.60;93812.00;;;;10631693;27;45269;-56
2022/08/19 10:48:46;;;;;;;6.93;3.88;;;18.40;69.20;20.40;93812.00;;;;10575091;27;45248;-57
2022/08/19 10:54:07;;;;;;;6.72;4.07;;;18.40;69.50;20.40;93818.00;;;;10544369;27;45360;-58
2022/08/19 10:59:30;;;;;;;6.95;4.32;;;18.40;69.40;20.40;93813.00;;;;10545353;27;46036;-58
2022/08/19 11:04:51;;;;;;;8.15;4.63;;;18.40;69.30;20.40;93813.00;;;;10544754;27;45839;-57
2022/08/19 11:10:15;;;;;;;8.05;4.88;;;18.40;69.20;20.40;93803.00;;;;10546252;27;45302;-56
2022/08/19 11:15:38;;;;;;;8.35;5.38;;;18.40;69.20;20.40;93802.00;;;;10545741;27;45186;-57
2022/08/19 11:21:09;;;;;;;8.05;5.70;;;18.40;69.20;20.40;93820.00;;;;10545760;27;45177;-57
2022/08/19 11:26:31;;;;;;;7.95;5.10;;;18.40;69.10;20.40;93829.00;;;;10543116;27;45694;-58
2022/08/19 11:31:54;;;;;;;9.63;5.88;;;18.40;69.00;20.40;93832.00;;;;10545852;27;45876;-57
2022/08/19 11:37:15;;;;;;;8.93;5.70;;;18.40;69.10;20.40;93835.00;;;;10545478;27;45340;-57
2022/08/19 11:48:15;;;;;;;9.35;6.18;;;18.40;68.90;20.40;93845.00;;;;10540428;27;46078;-59
2022/08/19 11:53:37;;;;;;;9.45;6.22;;;18.40;69.10;20.40;93836.00;;;;10520268;27;45086;-59
2022/08/19 11:58:58;;;;;;;9.90;6.07;;;18.40;69.20;20.40;93835.00;;;;10513444;27;45264;-60
2022/08/19 12:04:20;;;;;;;8.27;5.70;;;18.40;68.90;20.40;93843.00;;;;10513160;28;45851;-59
2022/08/19 12:09:41;;;;;;;8.35;6.25;;;18.40;68.90;20.40;93846.00;;;;10514121;27;45399;-58
2022/08/19 12:15:02;;;;;;;9.18;6.05;;;18.40;69.00;20.40;93848.00;;;;10513993;28;45777;-59
2022/08/19 12:20:26;;;;;;;9.20;6.32;;;18.40;68.80;20.40;93855.00;;;;10514073;27;45173;-58
2022/08/19 12:25:51;;;;;;;8.85;6.15;;;18.40;68.70;20.40;93852.00;;;;10514386;28;45477;-58
2022/08/19 12:31:12;;;;;;;8.73;6.05;;;18.40;68.80;20.40;93852.00;;;;10515363;28;45265;-59
2022/08/19 12:36:34;;;;;;;8.75;6.20;;;18.40;68.90;20.40;93855.00;;;;10515263;28;45737;-60
2022/08/19 12:41:55;;;;;;;9.55;6.05;;;18.40;68.90;20.40;93857.00;;;;10526995;27;45260;-59
2022/08/19 12:47:16;;;;;;;9.63;6.40;;;18.40;68.90;20.40;93845.00;;;;10514565;28;45221;-60
2022/08/19 12:52:42;;;;;;;10.02;6.07;;;18.40;68.80;20.40;93854.00;;;;10515261;28;45165;-58
2022/08/19 12:58:02;;;;;;;9.05;6.10;;;18.40;68.90;20.40;93858.00;;;;10514149;28;45775;-58
2022/08/19 13:03:28;;;;;;;9.00;6.05;;;18.40;69.00;20.40;93856.00;;;;10513351;27;45232;-57
2022/08/19 13:08:50;;;;;;;7.07;5.25;;;18.40;68.90;20.50;93846.00;;;;10514698;27;45136;-59
2022/08/19 13:14:11;;;;;;;6.75;4.78;;;18.40;68.30;20.50;93855.00;;;;10514266;28;45236;-60
2022/08/19 13:19:32;;;;;;;7.25;5.10;;;18.50;68.20;20.50;93853.00;;;;10513852;28;45276;-59
2022/08/19 13:24:54;;;;;;;7.70;5.07;;;18.50;68.00;20.50;93840.00;;;;10513294;28;45204;-58
2022/08/19 13:36:00;;;;;;;8.68;5.53;;;18.50;68.10;20.50;93850.00;;;;10513126;28;45266;-58
2022/08/19 13:41:22;;;;;;;7.85;5.03;;;18.50;68.10;20.50;93857.00;;;;10524313;27;45103;-58
2022/08/19 13:46:44;;;;;;;8.88;5.53;;;18.50;68.20;20.50;93855.00;;;;10513703;28;45479;-59
2022/08/19 13:52:06;;;;;;;8.55;5.85;;;18.50;68.20;20.50;93849.00;;;;10512655;28;45120;-57
2022/08/19 13:57:28;;;;;;;8.80;5.50;;;18.50;68.50;20.50;93843.00;;;;10512971;27;45786;-58
2022/08/19 14:02:53;;;;;;;8.10;5.57;;;18.50;68.60;20.50;93855.00;;;;10512378;28;45201;-58
2022/08/19 14:08:14;;;;;;;10.30;5.20;;;18.50;68.70;20.50;93842.00;;;;10512661;27;45686;-59
2022/08/19 14:13:37;;;;;;;8.20;5.18;;;18.50;68.80;20.50;93856.00;;;;10511575;28;45339;-57
2022/08/19 14:18:57;;;;;;;6.22;4.85;;;18.50;68.70;20.50;93857.00;;;;10512139;27;45199;-59
2022/08/19 14:24:18;;;;;;;7.32;4.75;;;18.50;68.50;20.50;93848.00;;;;10510850;28;45265;-59
2022/08/19 14:29:40;;;;;;;6.75;4.50;;;18.50;68.50;20.50;93870.00;;;;10511834;28;45080;-59
2022/08/19 14:35:00;;;;;;;6.80;4.50;;;18.50;68.50;20.50;93870.00;;;;10511659;28;45818;-58
2022/08/19 14:40:25;;;;;;;5.95;4.32;;;18.50;68.40;20.50;93858.00;;;;10512004;28;45257;-59
2022/08/19 14:45:47;;;;;;;5.32;3.97;;;18.50;68.50;20.50;93860.00;;;;10511394;28;45440;-58
2022/08/19 14:51:09;;;;;;;5.95;4.22;;;18.50;68.30;20.50;93874.00;;;;10511439;27;45225;-56
2022/08/19 14:56:31;;;;;;;6.45;4.18;;;18.50;68.10;20.50;93877.00;;;;10511071;28;45136;-58
2022/08/19 15:01:52;;;;;;;6.47;4.40;;;18.50;68.20;20.50;93863.00;;;;10511407;27;45865;-58
2022/08/19 15:07:13;;;;;;;6.82;4.10;;;18.50;68.00;20.50;93878.00;;;;10510777;28;45206;-60
2022/08/19 15:12:34;;;;;;;5.13;3.60;;;18.50;67.80;20.50;93860.00;;;;10510530;28;45244;-59
2022/08/19 15:18:02;;;;;;;6.20;3.78;;;18.60;67.90;20.60;93872.00;;;;10510646;27;45756;-59
2022/08/19 15:23:23;;;;;;;6.75;3.90;;;18.60;67.80;20.60;93888.00;;;;10508371;28;45392;-58
2022/08/19 15:28:43;;;;;;;5.15;3.70;;;18.60;67.70;20.60;93894.00;;;;10515410;27;45457;-58
2022/08/19 15:34:06;;;;;;;4.90;3.85;;;18.60;67.60;20.60;93894.00;;;;10517550;28;45268;-59
2022/08/19 15:39:27;;;;;;;5.78;3.78;;;18.60;67.70;20.60;93898.00;;;;10522253;27;45670;-59
2022/08/19 15:44:47;;;;;;;7.22;4.30;;;18.60;67.70;20.60;93890.00;;;;10511770;28;45873;-59
2022/08/19 15:50:14;;;;;;;6.60;3.67;;;18.60;67.90;20.60;93887.00;;;;10522470;27;45795;-59
2022/08/19 15:55:37;;;;;;;5.85;3.92;;;18.60;67.90;20.60;93889.00;;;;10521020;28;45248;-58
2022/08/19 16:06:41;;;;;;;5.35;3.78;;;18.60;67.70;20.60;93898.00;;;;10522812;28;45453;-59
2022/08/19 16:12:05;;;;;;;4.43;3.35;;;18.50;67.60;20.60;93891.00;;;;10522103;27;45658;-58
2022/08/19 16:17:26;;;;;;;5.10;3.80;;;18.50;67.00;20.60;93888.00;;;;10521944;27;45389;-58
2022/08/19 16:22:48;;;;;;;4.68;3.67;;;18.60;67.30;20.60;93896.00;;;;10521653;28;45433;-59
2022/08/19 16:28:09;;;;;;;4.93;3.75;;;18.60;67.20;20.60;93895.00;;;;10512880;28;45785;-58
2022/08/19 16:33:30;;;;;;;5.60;4.00;;;18.60;67.60;20.60;93908.00;;;;10514575;27;45147;-59
2022/08/19 16:38:53;;;;;;;7.50;4.18;;;18.60;67.70;20.60;93920.00;;;;10518164;27;45211;-58
2022/08/19 16:44:16;;;;;;;5.15;3.50;;;18.60;67.70;20.60;93931.00;;;;10518693;28;45203;-57
2022/08/19 16:49:37;;;;;;;5.97;3.70;;;18.50;67.10;20.70;93931.00;;;;10512202;28;45790;-57
2022/08/19 16:54:59;;;;;;;4.80;3.60;;;18.60;66.90;20.60;93929.00;;;;10511575;28;45244;-57
2022/08/19 17:00:19;;;;;;;6.03;3.50;;;18.60;66.80;20.60;93937.00;;;;10514822;28;45292;-57
2022/08/19 17:05:43;;;;;;;5.65;3.47;;;18.60;66.90;20.60;93932.00;;;;10506328;28;45371;-57
2022/08/19 17:11:05;;;;;;;4.43;3.00;;;18.60;66.60;20.60;93936.00;;;;10505134;27;45465;-57
2022/08/19 17:16:28;;;;;;;3.97;2.88;;;18.50;66.50;20.60;93940.00;;;;10511342;28;45249;-57
2022/08/19 17:21:49;;;;;;;4.80;2.88;;;18.50;66.50;20.60;93940.00;;;;10511697;28;45768;-57
2022/08/19 17:27:11;;;;;;;4.15;3.25;;;18.50;66.50;20.60;93938.00;;;;10511293;28;45544;-56
2022/08/19 17:32:34;;;;;;;3.55;2.85;;;18.50;66.40;20.60;93943.00;;;;10513150;28;45156;-56
2022/08/19 17:37:55;;;;;;;4.97;3.15;;;18.50;66.30;20.60;93934.00;;;;10512057;28;45220;-56
2022/08/19 17:43:19;;;;;;;4.55;2.90;;;18.50;66.30;20.60;93933.00;;;;10511612;28;45408;-57
2022/08/19 17:48:39;;;;;;;5.57;3.60;;;18.50;66.20;20.60;93953.00;;;;10508735;27;45548;-56
2022/08/19 17:54:00;;;;;;;3.83;3.05;;;18.50;66.10;20.60;93938.00;;;;10510716;28;45349;-57
2022/08/19 17:59:22;;;;;;;4.05;3.20;;;18.50;66.10;20.60;93947.00;;;;10507655;27;45323;-57
2022/08/19 18:04:43;;;;;;;4.90;2.67;;;18.50;66.00;20.60;93945.00;;;;10510527;28;46022;-57
2022/08/19 18:10:04;;;;;;;3.97;3.22;;;18.50;66.00;20.60;93955.00;;;;10519350;27;45275;-57
2022/08/19 18:15:26;;;;;;;4.03;2.92;;;18.50;66.00;20.60;93971.00;;;;10530387;27;45169;-58
2022/08/19 18:20:46;;;;;;;3.42;2.72;;;18.50;65.90;20.60;93965.00;;;;10526442;27;45799;-57
2022/08/19 18:26:08;;;;;;;5.93;3.03;;;18.50;65.80;20.60;93962.00;;;;10505907;28;45234;-56
2022/08/19 18:31:29;;;;;;;5.07;2.90;;;18.50;65.90;20.60;93980.00;;;;10510964;28;45228;-55
2022/08/19 18:36:50;;;;;;;4.72;3.10;;;18.50;65.80;20.60;93965.00;;;;10510789;28;45219;-57
2022/08/19 18:53:36;;;;;;;3.60;2.60;;;18.60;65.60;20.60;93992.00;;;;10511245;28;45051;-57
2022/08/19 18:58:58;;;;;;;3.75;2.92;;;18.60;65.60;20.70;93999.00;;;;10509097;28;45581;-57
2022/08/19 19:04:24;;;;;;;5.13;3.00;;;18.50;65.50;20.70;94002.00;;;;10516127;27;45264;-57
2022/08/19 19:09:45;;;;;;;3.53;2.78;;;18.60;65.50;20.70;94008.00;;;;10518605;27;45601;-58
2022/08/19 19:15:07;;;;;;;3.58;2.78;;;18.60;65.40;20.70;94000.00;;;;10517414;28;45738;-58
2022/08/19 19:20:29;;;;;;;3.72;2.70;;;18.60;66.20;20.70;94012.00;;;;10505859;28;45271;-58
2022/08/19 19:25:51;;;;;;;4.05;3.00;;;18.60;65.40;20.70;94010.00;;;;10508053;28;45889;-58
2022/08/19 19:31:14;;;;;;;3.95;2.92;;;18.60;65.40;20.70;94017.00;;;;10515885;27;45428;-57
2022/08/19 19:36:36;;;;;;;3.67;2.83;;;18.60;65.30;20.70;94014.00;;;;10515643;28;45258;-57
2022/08/19 19:41:57;;;;;;;4.05;3.00;;;18.60;65.30;20.70;94027.00;;;;10516831;27;45657;-57
2022/08/19 19:47:18;;;;;;;3.83;2.38;;;18.60;65.20;20.70;94036.00;;;;10515988;27;45637;-58
2022/08/19 19:52:44;;;;;;;4.93;3.10;;;18.60;65.20;20.60;94033.00;;;;10514181;28;45133;-57
2022/08/19 19:58:05;;;;;;;3.08;2.60;;;18.50;65.20;20.70;94041.00;;;;10514002;27;45270;-57
2022/08/19 20:03:26;;;;;;;3.45;2.85;;;18.60;65.20;20.70;94037.00;;;;10512217;28;45266;-57
2022/08/19 20:14:30;;;;;;;3.55;2.78;;;18.60;65.20;20.70;94038.00;;;;10513938;27;45304;-58
2022/08/19 20:19:52;;;;;;;4.15;2.80;;;18.60;65.10;20.70;94048.00;;;;10513714;28;45228;-57
2022/08/19 20:25:15;;;;;;;5.55;2.88;;;18.50;65.10;20.60;94041.00;;;;10511971;28;45277;-57
2022/08/19 20:30:35;;;;;;;3.00;2.50;;;18.60;65.10;20.60;94040.00;;;;10513819;27;45199;-58
2022/08/19 20:35:56;;;;;;;4.45;2.83;;;18.60;65.10;20.70;94054.00;;;;10511353;28;45707;-56
2022/08/19 20:41:18;;;;;;;3.50;2.53;;;18.50;65.00;20.60;94050.00;;;;10512492;27;45258;-57
2022/08/19 20:46:39;;;;;;;3.35;2.40;;;18.50;65.00;20.60;94063.00;;;;10511386;28;45876;-57
2022/08/19 20:51:59;;;;;;;3.67;2.58;;;18.50;65.00;20.60;94065.00;;;;10513922;27;45465;-57
2022/08/19 20:57:21;;;;;;;3.47;2.50;;;18.50;65.00;20.60;94051.00;;;;10509681;28;45488;-57
2022/08/19 21:02:42;;;;;;;3.15;2.45;;;18.50;65.00;20.60;94054.00;;;;10512639;28;45159;-57
2022/08/19 21:08:03;;;;;;;3.88;2.80;;;18.50;65.00;20.70;94055.00;;;;10512697;27;45483;-58
2022/08/19 21:13:25;;;;;;;4.00;2.53;;;18.50;65.00;20.60;94047.00;;;;10511955;28;45603;-58
2022/08/19 21:18:46;;;;;;;3.60;2.58;;;18.50;64.90;20.60;94039.00;;;;10502836;27;45686;-58
2022/08/19 21:24:07;;;;;;;3.58;2.67;;;18.50;64.80;20.70;94045.00;;;;10509590;27;45192;-58
2022/08/19 21:29:30;;;;;;;2.78;2.40;;;18.60;64.90;20.60;94046.00;;;;10515200;28;45177;-57
2022/08/19 21:34:52;;;;;;;3.75;2.70;;;18.50;64.70;20.60;94030.00;;;;10514415;28;45752;-56
2022/08/19 21:40:13;;;;;;;3.40;2.67;;;18.50;64.80;20.60;94056.00;;;;10514508;28;45713;-57
2022/08/19 21:45:35;;;;;;;2.83;2.22;;;18.50;64.80;20.60;94053.00;;;;10501045;28;45670;-55
2022/08/19 21:50:55;;;;;;;3.05;2.40;;;18.50;64.70;20.60;94054.00;;;;10514366;28;45137;-56
2022/08/19 21:56:16;;;;;;;3.97;2.72;;;18.60;64.70;20.60;94066.00;;;;10513815;28;45398;-57
2022/08/19 22:01:38;;;;;;;3.58;2.67;;;18.60;64.70;20.70;94056.00;;;;10513456;27;45221;-59
2022/08/19 22:06:59;;;;;;;3.97;2.58;;;18.60;64.60;20.70;94043.00;;;;10514543;28;45862;-56
2022/08/19 22:12:23;;;;;;;3.30;2.47;;;18.60;64.50;20.60;94059.00;;;;10513948;28;45221;-58
2022/08/19 22:17:45;;;;;;;3.10;2.42;;;18.50;64.60;20.60;94054.00;;;;10513242;27;45143;-57
2022/08/19 22:23:07;;;;;;;3.63;2.03;;;18.50;64.60;20.60;94056.00;;;;10513041;28;45453;-57
2022/08/19 22:28:27;;;;;;;2.78;2.10;;;18.50;64.60;20.60;94052.00;;;;10513360;28;45151;-57
2022/08/19 22:33:51;;;;;;;3.55;2.22;;;18.50;64.60;20.60;94059.00;;;;10512915;28;45786;-58
2022/08/19 22:39:11;;;;;;;2.97;2.25;;;18.50;64.60;20.60;94062.00;;;;10507999;27;45675;-58
2022/08/19 22:44:32;;;;;;;2.78;2.17;;;18.50;64.60;20.60;94069.00;;;;10512279;28;45686;-57
2022/08/19 22:49:54;;;;;;;3.13;2.17;;;18.50;64.50;20.60;94075.00;;;;10512782;28;45143;-58
2022/08/19 22:55:14;;;;;;;3.17;2.25;;;18.50;64.60;20.60;94072.00;;;;10512059;28;45295;-57
2022/08/19 23:00:35;;;;;;;3.22;2.28;;;18.50;64.60;20.60;94078.00;;;;10511979;28;45969;-58
2022/08/19 23:05:57;;;;;;;2.90;2.40;;;18.50;64.50;20.60;94078.00;;;;10500398;28;45292;-55
2022/08/19 23:11:18;;;;;;;2.95;2.20;;;18.50;64.60;20.60;94063.00;;;;10512389;28;45447;-55
2022/08/19 23:16:39;;;;;;;2.65;1.98;;;18.50;64.50;20.60;94064.00;;;;10511418;28;45267;-58
2022/08/19 23:22:01;;;;;;;2.90;2.17;;;18.50;64.50;20.60;94059.00;;;;10498245;28;45148;-57
2022/08/19 23:33:05;;;;;;;2.92;2.00;;;18.50;64.40;20.60;94038.00;;;;10510343;28;45788;-56
2022/08/19 23:38:31;;;;;;;2.97;2.03;;;18.50;64.40;20.60;94042.00;;;;10509132;28;45187;-58
2022/08/19 23:43:51;;;;;;;2.65;2.17;;;18.50;64.40;20.60;94032.00;;;;10510126;28;45274;-58
2022/08/19 23:49:13;;;;;;;3.08;2.22;;;18.50;64.40;20.60;94039.00;;;;10515284;27;45148;-56
2022/08/19 23:54:35;;;;;;;2.83;2.17;;;18.50;64.40;20.60;94036.00;;;;10517586;28;45208;-58
2022/08/19 23:59:56;;;;;;;3.67;2.30;;;18.50;64.30;20.60;94042.00;;;;10518070;28;45756;-58
